createdAt,value
2022-11-17T00:01:18.843Z,20.20
2022-11-17T00:03:46.181Z,20.20
2022-11-17T00:06:12.699Z,20.10
2022-11-17T00:08:39.260Z,20.10
2022-11-17T00:11:06.000Z,20.10
2022-11-17T00:13:51.525Z,20.10
2022-11-17T00:16:19.375Z,20.10
2022-11-17T00:19:04.548Z,20.10
2022-11-17T00:21:31.127Z,20.10
2022-11-17T00:23:58.126Z,20.10
2022-11-17T00:26:28.700Z,20.10
2022-11-17T00:28:56.380Z,20.10
2022-11-17T00:31:42.238Z,20.10
2022-11-17T00:34:11.886Z,20.10
2022-11-17T00:36:45.500Z,20.10
2022-11-17T00:39:12.760Z,20.10
2022-11-17T00:41:39.349Z,20.10
2022-11-17T00:44:06.318Z,20.10
2022-11-17T00:46:33.207Z,20.10
2022-11-17T00:48:59.750Z,20.40
2022-11-17T00:51:26.660Z,20.10
2022-11-17T00:53:53.270Z,20.10
2022-11-17T00:56:19.900Z,20.10
2022-11-17T00:58:46.435Z,20.10
2022-11-17T01:01:13.210Z,20.10
2022-11-17T01:03:39.774Z,20.10
2022-11-17T01:06:07.603Z,20.10
2022-11-17T01:08:34.520Z,20.10
2022-11-17T01:11:05.084Z,20.10
2022-11-17T01:13:31.772Z,20.10
2022-11-17T01:16:02.067Z,20.10
2022-11-17T01:18:28.647Z,20.10
2022-11-17T01:20:55.129Z,20.10
2022-11-17T01:23:21.629Z,20.10
2022-11-17T01:25:48.304Z,20.10
2022-11-17T01:28:14.861Z,20.10
2022-11-17T01:30:41.364Z,20.10
2022-11-17T01:33:07.868Z,20.10
2022-11-17T01:35:34.371Z,20.00
2022-11-17T01:38:00.869Z,20.10
2022-11-17T01:40:27.358Z,20.00
2022-11-17T01:42:53.879Z,20.10
2022-11-17T01:45:25.665Z,20.10
2022-11-17T01:47:58.298Z,20.10
2022-11-17T01:50:28.116Z,20.10
2022-11-17T01:52:57.069Z,20.10
2022-11-17T01:55:25.441Z,20.10
2022-11-17T01:57:57.662Z,19.90
2022-11-17T02:00:24.864Z,20.10
2022-11-17T02:02:51.596Z,20.10
2022-11-17T02:05:34.267Z,20.10
2022-11-17T02:08:03.051Z,20.00
2022-11-17T02:10:30.572Z,20.00
2022-11-17T02:12:57.389Z,20.00
2022-11-17T02:15:24.056Z,20.00
2022-11-17T02:17:51.089Z,20.10
2022-11-17T02:20:36.318Z,20.10
2022-11-17T02:23:32.622Z,20.10
2022-11-17T02:26:14.589Z,20.00
2022-11-17T02:28:50.359Z,20.00
2022-11-17T02:31:27.848Z,20.00
2022-11-17T02:33:56.413Z,20.00
2022-11-17T02:36:31.781Z,20.00
2022-11-17T02:39:18.526Z,20.20
2022-11-17T02:42:03.916Z,20.00
2022-11-17T02:44:33.417Z,20.00
2022-11-17T02:47:03.508Z,20.00
2022-11-17T02:49:33.993Z,19.80
2022-11-17T02:52:01.833Z,20.00
2022-11-17T02:54:29.513Z,20.00
2022-11-17T02:56:56.012Z,20.00
2022-11-17T02:59:27.655Z,20.00
2022-11-17T03:01:59.752Z,20.00
2022-11-17T03:04:31.354Z,20.00
2022-11-17T03:07:00.642Z,20.00
2022-11-17T03:09:36.190Z,20.00
2022-11-17T03:12:08.879Z,20.00
2022-11-17T03:14:42.486Z,20.00
2022-11-17T03:17:23.835Z,20.00
2022-11-17T03:20:12.984Z,19.90
2022-11-17T03:22:43.200Z,20.00
2022-11-17T03:25:20.646Z,20.00
2022-11-17T03:27:49.072Z,20.00
2022-11-17T03:30:16.736Z,20.00
2022-11-17T03:32:45.519Z,20.00
2022-11-17T03:35:18.089Z,20.00
2022-11-17T03:37:47.394Z,20.00
2022-11-17T03:40:14.925Z,20.00
2022-11-17T03:42:43.668Z,20.00
2022-11-17T03:45:15.766Z,20.00
2022-11-17T03:47:42.564Z,20.00
2022-11-17T03:50:09.269Z,20.00
2022-11-17T03:56:23.583Z,20.00
2022-11-17T03:58:54.583Z,20.00
2022-11-17T04:01:22.540Z,20.00
2022-11-17T04:03:49.080Z,20.00
2022-11-17T04:06:15.627Z,20.00
2022-11-17T04:08:42.164Z,20.00
2022-11-17T04:11:27.263Z,20.00
2022-11-17T04:14:12.196Z,20.00
2022-11-17T04:16:38.753Z,20.00
2022-11-17T04:19:05.245Z,20.00
2022-11-17T04:21:31.734Z,20.00
2022-11-17T04:23:58.353Z,20.00
2022-11-17T04:26:43.927Z,20.00
2022-11-17T04:29:10.450Z,19.80
2022-11-17T04:31:36.991Z,20.00
2022-11-17T04:34:04.507Z,20.00
2022-11-17T04:36:34.280Z,20.00
2022-11-17T04:39:01.074Z,20.00
2022-11-17T04:41:47.054Z,20.00
2022-11-17T04:44:15.806Z,20.00
2022-11-17T04:46:44.477Z,20.00
2022-11-17T04:49:11.374Z,20.00
2022-11-17T04:51:38.436Z,20.00
2022-11-17T04:54:06.143Z,19.90
2022-11-17T04:56:32.915Z,20.00
2022-11-17T04:58:59.436Z,20.00
2022-11-17T05:01:26.851Z,20.00
2022-11-17T05:03:57.546Z,20.00
2022-11-17T05:06:28.011Z,20.00
2022-11-17T05:08:55.892Z,20.00
2022-11-17T05:11:42.273Z,20.00
2022-11-17T05:14:09.198Z,20.00
2022-11-17T05:16:54.474Z,20.00
2022-11-17T05:19:22.894Z,20.00
2022-11-17T05:21:49.685Z,20.00
2022-11-17T05:24:16.468Z,20.00
2022-11-17T05:26:43.970Z,19.90
2022-11-17T05:29:11.396Z,20.00
2022-11-17T05:31:37.973Z,20.00
2022-11-17T05:34:05.599Z,20.00
2022-11-17T05:36:32.232Z,19.90
2022-11-17T05:38:58.994Z,20.00
2022-11-17T05:41:25.632Z,19.40
2022-11-17T05:43:52.239Z,18.10
2022-11-17T05:46:19.427Z,17.50
2022-11-17T05:48:46.710Z,17.10
2022-11-17T05:51:13.216Z,16.90
2022-11-17T05:53:39.835Z,16.70
2022-11-17T05:56:25.114Z,16.70
2022-11-17T05:58:52.964Z,16.50
2022-11-17T06:01:20.579Z,16.50
2022-11-17T06:03:49.752Z,16.30
2022-11-17T06:06:16.295Z,16.30
2022-11-17T06:08:42.929Z,16.30
2022-11-17T06:11:09.419Z,16.20
2022-11-17T06:13:36.253Z,16.20
2022-11-17T06:16:06.540Z,17.10
2022-11-17T06:18:38.185Z,17.80
2022-11-17T06:21:05.625Z,18.30
2022-11-17T06:23:33.747Z,18.60
2022-11-17T06:26:05.295Z,18.80
2022-11-17T06:28:34.204Z,18.80
2022-11-17T06:31:01.482Z,18.90
2022-11-17T06:33:30.830Z,19.00
2022-11-17T06:36:00.450Z,19.00
2022-11-17T06:38:27.582Z,19.10
2022-11-17T06:40:54.451Z,19.10
2022-11-17T06:43:21.461Z,19.20
2022-11-17T06:45:48.428Z,19.20
2022-11-17T06:48:16.968Z,19.20
2022-11-17T06:50:44.224Z,19.20
2022-11-17T06:53:12.445Z,19.30
2022-11-17T06:55:39.223Z,19.30
2022-11-17T06:58:08.112Z,19.30
2022-11-17T07:00:36.303Z,19.30
2022-11-17T07:03:05.731Z,19.30
2022-11-17T07:05:33.875Z,19.30
2022-11-17T07:08:02.892Z,19.30
2022-11-17T07:10:30.655Z,19.40
2022-11-17T07:12:57.351Z,19.40
2022-11-17T07:15:25.478Z,19.40
2022-11-17T07:17:52.481Z,19.40
2022-11-17T07:20:19.420Z,19.30
2022-11-17T07:22:46.088Z,19.40
2022-11-17T07:25:12.907Z,19.40
2022-11-17T07:27:39.627Z,19.40
2022-11-17T07:30:07.542Z,19.40
2022-11-17T07:32:34.935Z,19.40
2022-11-17T07:35:05.921Z,19.40
2022-11-17T07:37:34.224Z,19.50
2022-11-17T07:40:00.898Z,19.50
2022-11-17T07:42:27.570Z,19.50
2022-11-17T07:44:54.597Z,19.50
2022-11-17T07:47:21.293Z,19.50
2022-11-17T07:49:47.979Z,19.50
2022-11-17T07:52:14.581Z,19.50
2022-11-17T07:54:41.194Z,19.50
2022-11-17T07:57:07.797Z,19.50
2022-11-17T07:59:34.414Z,19.50
2022-11-17T08:02:01.084Z,19.50
2022-11-17T08:04:27.701Z,19.50
2022-11-17T08:06:54.388Z,19.50
2022-11-17T08:09:21.024Z,19.50
2022-11-17T08:11:47.877Z,19.50
2022-11-17T08:14:14.504Z,19.50
2022-11-17T08:16:41.183Z,19.60
2022-11-17T08:19:07.943Z,19.50
2022-11-17T08:21:36.895Z,19.50
2022-11-17T08:24:03.746Z,19.50
2022-11-17T08:26:30.417Z,19.60
2022-11-17T08:28:59.061Z,19.60
2022-11-17T08:31:25.793Z,19.60
2022-11-17T08:33:52.417Z,19.70
2022-11-17T08:36:19.121Z,19.60
2022-11-17T08:38:45.745Z,19.60
2022-11-17T08:41:12.509Z,19.60
2022-11-17T08:43:39.159Z,19.60
2022-11-17T08:46:05.859Z,19.60
2022-11-17T08:48:33.306Z,19.60
2022-11-17T08:51:05.702Z,19.60
2022-11-17T08:53:32.512Z,19.60
2022-11-17T08:55:59.498Z,19.60
2022-11-17T08:58:26.400Z,19.70
2022-11-17T09:00:53.256Z,19.60
2022-11-17T09:03:19.959Z,19.60
2022-11-17T09:05:49.595Z,19.70
2022-11-17T09:08:44.036Z,19.60
2022-11-17T09:11:07.963Z,19.60
2022-11-17T09:13:35.634Z,19.70
2022-11-17T09:16:07.805Z,19.70
2022-11-17T09:18:36.933Z,19.70
2022-11-17T09:21:08.715Z,19.70
2022-11-17T09:23:35.974Z,19.70
2022-11-17T09:26:11.905Z,19.70
2022-11-17T09:28:39.367Z,19.70
2022-11-17T09:31:18.091Z,19.70
2022-11-17T09:33:44.995Z,19.70
2022-11-17T09:36:13.773Z,19.70
2022-11-17T09:38:41.301Z,19.70
2022-11-17T09:41:17.039Z,19.70
2022-11-17T09:43:56.430Z,19.70
2022-11-17T09:46:33.582Z,19.70
2022-11-17T09:49:11.496Z,19.70
2022-11-17T09:51:42.047Z,19.70
2022-11-17T09:54:20.291Z,19.70
2022-11-17T09:56:47.821Z,19.70
2022-11-17T09:59:19.466Z,19.70
2022-11-17T10:01:46.298Z,19.70
2022-11-17T10:04:16.662Z,19.60
2022-11-17T10:06:46.412Z,19.70
2022-11-17T10:09:29.821Z,19.70
2022-11-17T10:12:12.997Z,19.70
2022-11-17T10:14:41.025Z,19.70
2022-11-17T10:17:09.171Z,19.70
2022-11-17T10:19:38.180Z,19.70
2022-11-17T10:22:05.264Z,19.70
2022-11-17T10:24:36.711Z,19.70
2022-11-17T10:27:06.941Z,19.70
2022-11-17T10:29:33.696Z,19.70
2022-11-17T10:32:03.299Z,19.70
2022-11-17T10:34:40.732Z,19.70
2022-11-17T10:37:13.866Z,19.70
2022-11-17T10:39:42.498Z,19.70
2022-11-17T10:42:22.969Z,19.70
2022-11-17T10:44:56.197Z,19.70
2022-11-17T10:47:30.548Z,19.70
2022-11-17T10:50:19.277Z,19.70
2022-11-17T10:52:46.989Z,19.70
2022-11-17T10:55:34.130Z,19.70
2022-11-17T10:58:26.591Z,19.70
2022-11-17T11:00:57.407Z,19.70
2022-11-17T11:03:35.123Z,19.80
2022-11-17T11:06:06.487Z,19.80
2022-11-17T11:09:05.212Z,19.80
2022-11-17T11:11:44.917Z,19.80
2022-11-17T11:14:19.934Z,19.80
2022-11-17T11:16:49.199Z,19.80
2022-11-17T11:19:17.886Z,19.80
2022-11-17T11:22:21.445Z,19.80
2022-11-17T11:25:02.540Z,19.80
2022-11-17T11:27:47.235Z,19.80
2022-11-17T11:30:17.359Z,19.80
2022-11-17T11:33:12.267Z,19.80
2022-11-17T11:35:48.049Z,19.80
2022-11-17T11:38:41.203Z,19.80
2022-11-17T11:41:35.523Z,19.80
2022-11-17T11:44:02.109Z,19.80
2022-11-17T11:46:41.517Z,19.70
2022-11-17T11:49:30.772Z,19.80
2022-11-17T11:51:57.809Z,19.80
2022-11-17T11:54:32.846Z,19.80
2022-11-17T11:57:01.058Z,19.80
2022-11-17T11:59:58.215Z,19.70
2022-11-17T12:02:51.391Z,19.80
2022-11-17T12:05:39.953Z,19.80
2022-11-17T12:08:15.492Z,19.80
2022-11-17T12:10:51.771Z,19.80
2022-11-17T12:13:21.128Z,19.80
2022-11-17T12:15:47.961Z,19.80
2022-11-17T12:18:17.250Z,19.80
2022-11-17T12:20:46.891Z,19.80
2022-11-17T12:23:46.840Z,19.80
2022-11-17T12:26:28.929Z,19.80
2022-11-17T12:29:20.460Z,19.80
2022-11-17T12:31:47.915Z,19.80
2022-11-17T12:34:31.891Z,19.80
2022-11-17T12:37:17.576Z,19.80
2022-11-17T12:40:04.227Z,19.80
2022-11-17T12:42:32.814Z,19.80
2022-11-17T12:45:03.819Z,19.90
2022-11-17T12:47:35.905Z,19.80
2022-11-17T12:50:18.035Z,19.80
2022-11-17T12:53:06.628Z,19.80
2022-11-17T12:55:42.213Z,19.90
2022-11-17T12:58:33.726Z,19.90
2022-11-17T13:01:17.430Z,19.80
2022-11-17T13:04:06.511Z,19.90
2022-11-17T13:06:36.262Z,19.90
2022-11-17T13:09:12.017Z,19.90
2022-11-17T13:11:38.718Z,19.90
2022-11-17T13:14:21.811Z,19.90
2022-11-17T13:16:50.182Z,19.90
2022-11-17T13:19:38.549Z,19.80
2022-11-17T13:22:16.398Z,19.90
2022-11-17T13:24:46.365Z,19.90
2022-11-17T13:27:23.331Z,19.90
2022-11-17T13:29:51.135Z,19.90
2022-11-17T13:32:21.282Z,19.90
2022-11-17T13:34:56.635Z,19.90
2022-11-17T13:37:26.368Z,19.90
2022-11-17T13:40:14.058Z,19.90
2022-11-17T13:42:41.205Z,19.90
2022-11-17T13:45:13.272Z,19.90
2022-11-17T13:47:39.790Z,19.90
2022-11-17T13:50:31.365Z,19.90
2022-11-17T13:53:04.809Z,19.90
2022-11-17T13:55:32.025Z,19.90
2022-11-17T13:58:02.308Z,19.90
2022-11-17T14:00:31.016Z,19.90
2022-11-17T14:03:00.480Z,19.90
2022-11-17T14:05:28.704Z,19.90
2022-11-17T14:07:59.832Z,19.90
2022-11-17T14:10:31.778Z,19.90
2022-11-17T14:13:01.088Z,19.80
2022-11-17T14:15:30.908Z,19.90
2022-11-17T14:17:59.595Z,19.80
2022-11-17T14:20:26.223Z,19.80
2022-11-17T14:23:03.885Z,19.80
2022-11-17T14:25:33.103Z,19.80
2022-11-17T14:27:59.823Z,19.80
2022-11-17T14:30:26.601Z,19.80
2022-11-17T14:32:53.269Z,19.80
2022-11-17T14:35:19.956Z,19.80
2022-11-17T14:37:46.908Z,19.80
2022-11-17T14:40:16.432Z,19.80
2022-11-17T14:42:43.626Z,19.80
2022-11-17T14:45:15.327Z,19.80
2022-11-17T14:47:42.312Z,19.80
2022-11-17T14:50:13.795Z,19.80
2022-11-17T14:52:42.390Z,19.80
2022-11-17T14:55:10.882Z,19.80
2022-11-17T14:57:37.806Z,19.90
2022-11-17T15:00:07.418Z,19.80
2022-11-17T15:02:35.822Z,19.80
2022-11-17T15:05:03.172Z,19.80
2022-11-17T15:07:30.114Z,19.80
2022-11-17T15:09:57.570Z,19.80
2022-11-17T15:12:24.161Z,19.80
2022-11-17T15:14:51.000Z,19.80
2022-11-17T15:17:17.602Z,19.80
2022-11-17T15:19:45.212Z,19.80
2022-11-17T15:22:12.220Z,19.20
2022-11-17T15:24:38.825Z,18.40
2022-11-17T15:27:05.409Z,18.80
2022-11-17T15:29:32.088Z,19.10
2022-11-17T15:31:58.693Z,19.30
2022-11-17T15:34:25.367Z,19.40
2022-11-17T15:36:52.148Z,19.50
2022-11-17T15:39:19.117Z,19.60
2022-11-17T15:41:45.965Z,19.60
2022-11-17T15:44:12.875Z,19.60
2022-11-17T15:46:42.983Z,19.60
2022-11-17T15:49:13.951Z,19.70
2022-11-17T15:51:40.673Z,19.70
2022-11-17T15:54:08.328Z,19.70
2022-11-17T15:56:39.227Z,19.70
2022-11-17T15:59:06.484Z,19.70
2022-11-17T16:01:35.161Z,19.70
2022-11-17T16:04:02.902Z,19.70
2022-11-17T16:06:30.908Z,19.70
2022-11-17T16:08:57.769Z,19.70
2022-11-17T16:11:26.820Z,19.80
2022-11-17T16:13:54.781Z,19.70
2022-11-17T16:16:22.335Z,19.80
2022-11-17T16:18:49.042Z,19.80
2022-11-17T16:21:16.683Z,19.80
2022-11-17T16:23:47.540Z,19.80
2022-11-17T16:26:15.895Z,19.80
2022-11-17T16:28:42.615Z,19.80
2022-11-17T16:31:14.587Z,19.80
2022-11-17T16:33:46.500Z,19.80
2022-11-17T16:36:13.078Z,19.80
2022-11-17T16:38:49.846Z,19.80
2022-11-17T16:41:22.516Z,19.80
2022-11-17T16:43:49.484Z,19.80
2022-11-17T16:46:22.418Z,19.80
2022-11-17T16:48:49.913Z,19.80
2022-11-17T16:51:18.204Z,19.30
2022-11-17T16:53:47.804Z,18.40
2022-11-17T16:56:15.172Z,17.90
2022-11-17T16:58:41.919Z,18.50
2022-11-17T17:01:13.323Z,18.90
2022-11-17T17:03:41.198Z,19.20
2022-11-17T17:06:14.103Z,19.40
2022-11-17T17:08:41.192Z,19.50
2022-11-17T17:11:13.225Z,19.60
2022-11-17T17:13:40.144Z,19.70
2022-11-17T17:16:13.521Z,19.70
2022-11-17T17:18:41.004Z,19.70
2022-11-17T17:21:11.970Z,19.80
2022-11-17T17:23:38.809Z,19.80
2022-11-17T17:26:13.903Z,19.80
2022-11-17T17:28:43.709Z,19.90
2022-11-17T17:31:14.275Z,19.90
2022-11-17T17:33:44.133Z,20.00
2022-11-17T17:36:14.218Z,20.00
2022-11-17T17:38:41.170Z,20.00
2022-11-17T17:41:12.894Z,19.90
2022-11-17T17:43:40.444Z,20.00
2022-11-17T17:46:15.329Z,20.00
2022-11-17T17:48:44.480Z,20.00
2022-11-17T17:51:16.955Z,20.00
2022-11-17T17:53:43.776Z,20.00
2022-11-17T17:56:13.042Z,20.00
2022-11-17T17:58:41.111Z,20.00
2022-11-17T18:01:28.617Z,20.00
2022-11-17T18:04:01.171Z,20.00
2022-11-17T18:06:28.153Z,20.00
2022-11-17T18:08:54.772Z,20.10
2022-11-17T18:11:21.546Z,20.10
2022-11-17T18:13:51.144Z,20.00
2022-11-17T18:16:21.443Z,20.00
2022-11-17T18:18:48.339Z,20.00
2022-11-17T18:21:18.168Z,20.00
2022-11-17T18:23:45.372Z,20.00
2022-11-17T18:26:17.934Z,20.00
2022-11-17T18:28:52.451Z,20.10
2022-11-17T18:31:20.579Z,20.10
2022-11-17T18:33:57.604Z,20.10
2022-11-17T18:36:24.993Z,20.10
2022-11-17T18:38:52.734Z,20.10
2022-11-17T18:41:21.119Z,20.10
2022-11-17T18:43:48.284Z,20.20
2022-11-17T18:46:17.307Z,20.20
2022-11-17T18:48:46.438Z,20.20
2022-11-17T18:51:20.335Z,20.20
2022-11-17T18:53:51.461Z,20.20
2022-11-17T18:56:22.624Z,20.10
2022-11-17T18:58:49.830Z,20.10
2022-11-17T19:01:20.687Z,20.20
2022-11-17T19:03:52.370Z,20.20
2022-11-17T19:06:21.414Z,20.10
2022-11-17T19:08:48.420Z,20.20
2022-11-17T19:11:16.285Z,20.20
2022-11-17T19:13:43.967Z,20.20
2022-11-17T19:16:14.900Z,20.20
2022-11-17T19:18:42.677Z,20.20
2022-11-17T19:21:17.446Z,20.20
2022-11-17T19:23:51.051Z,20.20
2022-11-17T19:26:21.120Z,20.20
2022-11-17T19:28:48.321Z,20.30
2022-11-17T19:31:17.504Z,20.20
2022-11-17T19:33:45.764Z,20.60
2022-11-17T19:36:23.801Z,20.20
2022-11-17T19:38:51.844Z,20.20
2022-11-17T19:41:24.386Z,20.20
2022-11-17T19:43:59.484Z,20.20
2022-11-17T19:46:28.187Z,20.70
2022-11-17T19:48:58.414Z,20.20
2022-11-17T19:51:30.398Z,20.20
2022-11-17T19:54:00.956Z,20.20
2022-11-17T19:56:28.606Z,20.20
2022-11-17T19:58:55.727Z,20.70
2022-11-17T20:01:23.650Z,20.10
2022-11-17T20:03:50.868Z,20.20
2022-11-17T20:06:21.068Z,20.20
2022-11-17T20:08:48.387Z,20.20
2022-11-17T20:11:17.701Z,20.40
2022-11-17T20:13:44.407Z,20.20
2022-11-17T20:16:15.212Z,20.20
2022-11-17T20:18:42.926Z,20.20
2022-11-17T20:21:10.428Z,20.10
2022-11-17T20:23:38.723Z,20.20
2022-11-17T20:26:07.760Z,20.20
2022-11-17T20:28:36.405Z,20.20
2022-11-17T20:31:14.485Z,20.20
2022-11-17T20:33:42.692Z,20.40
2022-11-17T20:36:13.008Z,20.20
2022-11-17T20:38:39.898Z,20.60
2022-11-17T20:41:07.036Z,20.20
2022-11-17T20:43:34.974Z,20.10
2022-11-17T20:46:02.628Z,20.50
2022-11-17T20:48:30.232Z,20.40
2022-11-17T20:50:57.692Z,20.40
2022-11-17T20:53:24.637Z,20.10
2022-11-17T20:55:51.729Z,20.10
2022-11-17T20:58:18.363Z,20.50
2022-11-17T21:00:45.202Z,19.80
2022-11-17T21:03:11.923Z,20.20
2022-11-17T21:05:38.648Z,20.20
2022-11-17T21:08:05.856Z,20.40
2022-11-17T21:10:32.585Z,20.20
2022-11-17T21:12:59.769Z,20.20
2022-11-17T21:15:26.356Z,20.20
2022-11-17T21:18:11.697Z,20.20
2022-11-17T21:20:38.320Z,20.20
2022-11-17T21:23:04.952Z,20.30
2022-11-17T21:25:31.633Z,20.00
2022-11-17T21:27:58.405Z,20.20
2022-11-17T21:30:25.034Z,20.20
2022-11-17T21:32:51.650Z,20.10
2022-11-17T21:35:18.366Z,20.10
2022-11-17T21:37:45.043Z,20.30
2022-11-17T21:40:11.980Z,20.00
2022-11-17T21:42:38.712Z,20.00
2022-11-17T21:45:08.194Z,20.00
2022-11-17T21:47:34.814Z,20.00
2022-11-17T21:50:04.004Z,20.00
2022-11-17T21:52:30.703Z,20.00
2022-11-17T21:54:57.512Z,20.00
2022-11-17T21:57:24.178Z,20.30
2022-11-17T21:59:50.784Z,20.00
2022-11-17T22:02:18.872Z,19.90
2022-11-17T22:04:45.904Z,20.00
2022-11-17T22:07:12.555Z,20.30
2022-11-17T22:09:39.378Z,20.00
2022-11-17T22:12:06.197Z,21.10
2022-11-17T22:14:32.804Z,19.90
2022-11-17T22:17:00.617Z,20.00
2022-11-17T22:19:29.436Z,19.50
2022-11-17T22:21:56.115Z,19.90
2022-11-17T22:24:23.101Z,19.80
2022-11-17T22:26:51.540Z,19.70
2022-11-17T22:29:20.997Z,19.90
2022-11-17T22:31:48.638Z,19.90
2022-11-17T22:34:16.620Z,19.90
2022-11-17T22:36:43.429Z,19.90
2022-11-17T22:39:10.576Z,19.90
2022-11-17T22:41:39.514Z,19.90
2022-11-17T22:44:06.477Z,20.00
2022-11-17T22:46:34.872Z,20.30
2022-11-17T22:49:01.534Z,20.20
2022-11-17T22:51:46.936Z,19.80
2022-11-17T22:54:13.590Z,19.70
2022-11-17T22:56:40.293Z,19.90
2022-11-17T22:59:07.104Z,19.90
2022-11-17T23:01:33.891Z,19.90
2022-11-17T23:04:00.577Z,20.30
2022-11-17T23:06:27.355Z,19.90
2022-11-17T23:08:55.537Z,19.90
2022-11-17T23:11:36.471Z,19.90
2022-11-17T23:14:10.259Z,19.90
2022-11-17T23:16:37.848Z,19.90
2022-11-17T23:19:05.790Z,19.90
2022-11-17T23:21:32.498Z,19.90
2022-11-17T23:23:59.168Z,19.90
2022-11-17T23:26:27.044Z,19.90
2022-11-17T23:28:53.953Z,19.90
2022-11-17T23:31:20.824Z,19.90
2022-11-17T23:33:48.489Z,19.90
2022-11-17T23:36:17.796Z,19.90
2022-11-17T23:38:44.480Z,19.90
2022-11-17T23:41:13.501Z,19.90
2022-11-17T23:43:40.603Z,19.90
2022-11-17T23:46:15.350Z,20.00
2022-11-17T23:48:42.801Z,19.90
2022-11-17T23:51:17.920Z,19.90
2022-11-17T23:53:46.188Z,19.90
2022-11-17T23:56:13.320Z,19.90
2022-11-17T23:58:40.252Z,19.90
